createdAt,value
2019-02-21T00:01:27.290Z,11.30
2019-02-21T00:03:55.792Z,10.97
2019-02-21T00:06:24.298Z,9.20
2019-02-21T00:08:52.758Z,9.90
2019-02-21T00:11:21.198Z,8.63
2019-02-21T00:13:49.654Z,10.20
2019-02-21T00:16:18.570Z,9.30
2019-02-21T00:18:47.025Z,9.93
2019-02-21T00:21:15.466Z,10.17
2019-02-21T00:23:43.926Z,9.70
2019-02-21T00:26:12.377Z,9.20
2019-02-21T00:28:40.825Z,12.00
2019-02-21T00:31:09.278Z,8.47
2019-02-21T00:33:37.746Z,9.53
2019-02-21T00:36:06.190Z,9.87
2019-02-21T00:38:34.639Z,9.93
2019-02-21T00:41:03.087Z,9.33
2019-02-21T00:43:31.617Z,9.20
2019-02-21T00:46:00.077Z,10.10
2019-02-21T00:48:28.545Z,9.60
2019-02-21T00:50:57.084Z,10.60
2019-02-21T00:53:25.595Z,10.13
2019-02-21T00:55:54.051Z,9.07
2019-02-21T00:58:22.496Z,11.53
2019-02-21T01:00:50.959Z,11.80
2019-02-21T01:03:19.478Z,10.93
2019-02-21T01:05:47.936Z,11.23
2019-02-21T01:08:16.461Z,10.47
2019-02-21T01:10:44.986Z,11.10
2019-02-21T01:13:13.514Z,9.60
2019-02-21T01:15:41.946Z,11.07
2019-02-21T01:18:10.406Z,8.90
2019-02-21T01:20:38.850Z,9.80
2019-02-21T01:23:07.314Z,9.30
2019-02-21T01:25:35.757Z,9.27
2019-02-21T01:28:04.342Z,10.43
2019-02-21T01:30:32.862Z,8.93
2019-02-21T01:33:01.305Z,8.87
2019-02-21T01:35:29.834Z,9.30
2019-02-21T01:37:58.270Z,8.60
2019-02-21T01:40:26.793Z,8.17
2019-02-21T01:42:55.238Z,8.40
2019-02-21T01:45:23.674Z,7.90
2019-02-21T01:47:52.130Z,8.47
2019-02-21T01:50:20.570Z,8.00
2019-02-21T01:52:49.118Z,8.63
2019-02-21T01:55:17.557Z,7.40
2019-02-21T01:57:46.002Z,8.17
2019-02-21T02:00:14.663Z,8.47
2019-02-21T02:02:43.107Z,8.87
2019-02-21T02:05:11.709Z,8.20
2019-02-21T02:07:40.154Z,8.93
2019-02-21T02:10:09.622Z,8.20
2019-02-21T02:12:38.153Z,8.00
2019-02-21T02:15:08.739Z,8.50
2019-02-21T02:17:37.194Z,8.47
2019-02-21T02:20:07.843Z,8.40
2019-02-21T02:22:36.299Z,9.40
2019-02-21T02:25:04.912Z,8.57
2019-02-21T02:27:33.426Z,8.80
2019-02-21T02:30:01.899Z,8.60
2019-02-21T02:32:30.411Z,8.20
2019-02-21T02:34:59.973Z,8.57
2019-02-21T02:37:28.656Z,7.90
2019-02-21T02:39:57.162Z,8.87
2019-02-21T02:42:25.740Z,9.47
2019-02-21T02:44:54.240Z,7.87
2019-02-21T02:47:22.850Z,8.40
2019-02-21T02:49:51.395Z,8.60
2019-02-21T02:52:19.899Z,7.60
2019-02-21T02:54:48.629Z,7.23
2019-02-21T02:57:17.070Z,7.93
2019-02-21T02:59:45.516Z,7.37
2019-02-21T03:02:14.042Z,8.20
2019-02-21T03:04:42.522Z,7.77
2019-02-21T03:07:11.026Z,7.43
2019-02-21T03:09:39.483Z,7.63
2019-02-21T03:12:07.958Z,7.20
2019-02-21T03:14:36.471Z,6.77
2019-02-21T03:17:04.987Z,7.00
2019-02-21T03:19:33.454Z,7.50
2019-02-21T03:22:01.902Z,7.03
2019-02-21T03:24:30.355Z,7.30
2019-02-21T03:26:58.814Z,7.60
2019-02-21T03:29:27.258Z,7.13
2019-02-21T03:31:56.417Z,8.00
2019-02-21T03:34:25.045Z,7.80
2019-02-21T03:36:53.557Z,7.20
2019-02-21T03:39:22.080Z,7.17
2019-02-21T03:41:55.040Z,7.40
2019-02-21T03:44:23.459Z,6.77
2019-02-21T03:46:51.918Z,7.13
2019-02-21T03:49:20.379Z,8.53
2019-02-21T03:51:48.895Z,8.20
2019-02-21T03:54:17.349Z,8.10
2019-02-21T03:56:45.801Z,7.87
2019-02-21T03:59:14.328Z,8.87
2019-02-21T04:01:42.850Z,7.70
2019-02-21T04:04:11.359Z,8.00
2019-02-21T04:06:39.956Z,8.77
2019-02-21T04:09:08.889Z,7.57
2019-02-21T04:11:37.401Z,7.60
2019-02-21T04:14:05.931Z,7.50
2019-02-21T04:16:34.366Z,8.37
2019-02-21T04:19:02.897Z,8.67
2019-02-21T04:21:31.351Z,8.07
2019-02-21T04:23:59.856Z,8.23
2019-02-21T04:26:28.395Z,8.00
2019-02-21T04:28:56.836Z,9.33
2019-02-21T04:31:25.279Z,9.33
2019-02-21T04:33:53.737Z,8.70
2019-02-21T04:36:23.554Z,9.07
2019-02-21T04:38:52.199Z,9.30
2019-02-21T04:41:20.655Z,8.73
2019-02-21T04:43:49.101Z,8.43
2019-02-21T04:46:17.547Z,9.20
2019-02-21T04:48:46.003Z,8.13
2019-02-21T04:51:14.447Z,10.00
2019-02-21T04:53:42.978Z,10.27
2019-02-21T04:56:11.427Z,8.60
2019-02-21T04:58:39.878Z,9.20
2019-02-21T05:01:08.445Z,12.03
2019-02-21T05:03:36.934Z,12.03
2019-02-21T05:06:05.402Z,11.93
2019-02-21T05:08:33.838Z,9.73
2019-02-21T05:11:02.306Z,8.83
2019-02-21T05:13:30.741Z,9.33
2019-02-21T05:15:59.182Z,9.13
2019-02-21T05:18:27.641Z,9.50
2019-02-21T05:20:56.078Z,9.33
2019-02-21T05:23:24.538Z,10.60
2019-02-21T05:25:52.982Z,10.37
2019-02-21T05:28:25.782Z,10.83
2019-02-21T05:30:55.882Z,10.80
2019-02-21T05:33:38.197Z,10.80
2019-02-21T05:36:08.362Z,11.00
2019-02-21T05:38:54.745Z,10.90
2019-02-21T05:41:24.878Z,10.60
2019-02-21T05:43:57.702Z,10.13
2019-02-21T05:46:42.598Z,9.67
2019-02-21T05:49:29.163Z,11.20
2019-02-21T05:51:59.271Z,12.00
2019-02-21T05:54:32.526Z,12.33
2019-02-21T05:57:02.643Z,11.70
2019-02-21T05:59:32.897Z,11.00
2019-02-21T06:02:06.097Z,11.90
2019-02-21T06:04:52.390Z,12.53
2019-02-21T06:07:31.259Z,11.03
2019-02-21T06:10:07.109Z,9.67
2019-02-21T06:12:37.204Z,10.10
2019-02-21T06:15:07.843Z,11.60
2019-02-21T06:17:43.942Z,10.97
2019-02-21T06:20:23.176Z,11.37
2019-02-21T06:22:56.029Z,12.67
2019-02-21T06:25:29.766Z,11.63
2019-02-21T06:28:00.395Z,11.47
2019-02-21T06:30:30.480Z,39.87
2019-02-21T06:33:05.071Z,13.27
2019-02-21T06:35:29.108Z,12.70
2019-02-21T06:37:57.567Z,12.70
2019-02-21T06:40:26.027Z,13.83
2019-02-21T06:42:54.553Z,11.23
2019-02-21T06:45:23.086Z,11.70
2019-02-21T06:47:51.546Z,10.40
2019-02-21T06:50:26.955Z,12.30
2019-02-21T06:52:50.251Z,11.30
2019-02-21T06:55:20.533Z,11.10
2019-02-21T06:57:48.878Z,11.37
2019-02-21T07:00:17.360Z,10.90
2019-02-21T07:02:45.875Z,13.57
2019-02-21T07:05:14.318Z,10.77
2019-02-21T07:07:42.788Z,11.23
2019-02-21T07:10:11.307Z,10.17
2019-02-21T07:12:39.762Z,9.60
2019-02-21T07:15:11.217Z,10.07
2019-02-21T07:17:48.968Z,11.20
2019-02-21T07:20:09.982Z,11.77
2019-02-21T07:22:38.475Z,13.23
2019-02-21T07:25:08.827Z,12.20
2019-02-21T07:27:37.267Z,10.20
2019-02-21T07:30:19.257Z,15.23
2019-02-21T07:32:39.023Z,16.07
2019-02-21T07:35:07.630Z,16.03
2019-02-21T07:37:36.142Z,15.13
2019-02-21T07:40:05.640Z,15.00
2019-02-21T07:42:34.087Z,15.00
2019-02-21T07:45:02.610Z,13.77
2019-02-21T07:47:31.070Z,12.60
2019-02-21T07:49:59.527Z,12.60
2019-02-21T07:52:27.987Z,12.90
2019-02-21T07:55:01.860Z,12.37
2019-02-21T07:57:26.709Z,12.70
2019-02-21T07:59:55.154Z,11.40
2019-02-21T08:02:23.599Z,11.70
2019-02-21T08:04:52.055Z,13.50
2019-02-21T08:07:20.519Z,13.70
2019-02-21T08:09:48.981Z,14.23
2019-02-21T08:12:17.493Z,14.80
2019-02-21T08:14:46.026Z,13.80
2019-02-21T08:17:16.302Z,13.80
2019-02-21T08:19:44.657Z,13.60
2019-02-21T08:22:13.120Z,13.60
2019-02-21T08:24:41.565Z,13.10
2019-02-21T08:27:10.095Z,13.03
2019-02-21T08:29:38.543Z,13.70
2019-02-21T08:32:07.100Z,15.00
2019-02-21T08:34:37.261Z,14.50
2019-02-21T08:37:05.722Z,14.03
2019-02-21T08:39:34.163Z,14.27
2019-02-21T08:42:02.626Z,13.80
2019-02-21T08:44:31.074Z,13.37
2019-02-21T08:46:59.530Z,12.87
2019-02-21T08:49:27.992Z,14.60
2019-02-21T08:51:56.435Z,13.60
2019-02-21T08:54:24.898Z,13.47
2019-02-21T08:56:53.358Z,12.80
2019-02-21T08:59:21.903Z,14.43
2019-02-21T09:01:50.362Z,13.57
2019-02-21T09:04:27.328Z,13.60
2019-02-21T09:06:48.991Z,13.30
2019-02-21T09:09:17.545Z,17.33
2019-02-21T09:11:46.034Z,16.30
2019-02-21T09:14:14.486Z,14.40
2019-02-21T09:16:43.022Z,15.73
2019-02-21T09:19:11.470Z,16.20
2019-02-21T09:21:39.987Z,15.10
2019-02-21T09:24:08.448Z,18.10
2019-02-21T09:26:36.894Z,16.67
2019-02-21T09:29:05.354Z,19.07
2019-02-21T09:31:33.807Z,16.70
2019-02-21T09:34:02.330Z,17.40
2019-02-21T09:36:30.796Z,17.10
2019-02-21T09:38:59.618Z,15.73
2019-02-21T09:41:28.773Z,17.67
2019-02-21T09:43:57.455Z,18.67
2019-02-21T09:46:25.917Z,18.50
2019-02-21T09:48:54.382Z,16.83
2019-02-21T09:51:22.843Z,18.97
2019-02-21T09:53:51.303Z,18.43
2019-02-21T09:56:29.762Z,19.30
2019-02-21T09:58:49.955Z,20.20
2019-02-21T10:01:18.401Z,19.30
2019-02-21T10:03:46.943Z,17.80
2019-02-21T10:06:15.382Z,19.53
2019-02-21T10:08:43.852Z,21.43
2019-02-21T10:11:12.310Z,18.80
2019-02-21T10:13:40.767Z,19.27
2019-02-21T10:16:09.294Z,19.30
2019-02-21T10:18:37.730Z,20.60
2019-02-21T10:21:06.185Z,21.80
2019-02-21T10:23:34.635Z,21.73
2019-02-21T10:26:03.091Z,20.50
2019-02-21T10:28:32.540Z,18.07
2019-02-21T10:31:01.469Z,18.30
2019-02-21T10:33:29.973Z,19.80
2019-02-21T10:36:00.431Z,20.87
2019-02-21T10:38:28.658Z,18.70
2019-02-21T10:40:57.098Z,18.90
2019-02-21T10:43:25.563Z,17.37
2019-02-21T10:45:54.014Z,17.60
2019-02-21T10:48:22.542Z,16.47
2019-02-21T10:50:51.010Z,17.10
2019-02-21T10:53:19.544Z,18.80
2019-02-21T10:55:48.170Z,18.17
2019-02-21T10:58:16.718Z,18.30
2019-02-21T11:00:45.174Z,18.73
2019-02-21T11:03:13.704Z,19.53
2019-02-21T11:05:42.241Z,20.07
2019-02-21T11:08:10.763Z,20.03
2019-02-21T11:10:39.242Z,18.37
2019-02-21T11:13:07.693Z,17.80
2019-02-21T11:15:36.305Z,17.80
2019-02-21T11:18:04.826Z,18.13
2019-02-21T11:20:33.271Z,17.00
2019-02-21T11:23:01.731Z,17.90
2019-02-21T11:25:30.188Z,16.80
2019-02-21T11:27:58.651Z,17.93
2019-02-21T11:30:27.167Z,18.10
2019-02-21T11:32:55.631Z,19.50
2019-02-21T11:35:24.151Z,16.83
2019-02-21T11:37:52.626Z,16.97
2019-02-21T11:40:21.079Z,17.80
2019-02-21T11:42:49.533Z,17.00
2019-02-21T11:45:21.346Z,17.63
2019-02-21T11:47:49.795Z,16.63
2019-02-21T11:50:19.198Z,17.97
2019-02-21T11:52:47.811Z,17.30
2019-02-21T11:55:18.617Z,18.13
2019-02-21T11:57:47.099Z,16.80
2019-02-21T12:00:24.225Z,15.57
2019-02-21T12:02:52.680Z,15.43
2019-02-21T12:05:30.601Z,14.77
2019-02-21T12:07:51.406Z,15.03
2019-02-21T12:10:19.926Z,16.60
2019-02-21T12:12:48.396Z,17.60
2019-02-21T12:15:17.348Z,14.83
2019-02-21T12:17:45.848Z,15.67
2019-02-21T12:20:19.030Z,14.90
2019-02-21T12:22:47.994Z,15.50
2019-02-21T12:25:19.537Z,15.87
2019-02-21T12:27:47.986Z,16.10
2019-02-21T12:30:19.063Z,15.27
2019-02-21T12:32:47.578Z,14.47
2019-02-21T12:35:16.109Z,13.30
2019-02-21T12:37:44.631Z,14.80
2019-02-21T12:40:32.505Z,14.87
2019-02-21T12:43:00.953Z,11.77
2019-02-21T12:45:30.156Z,9.67
2019-02-21T12:47:58.747Z,10.40
2019-02-21T12:50:27.198Z,10.00
2019-02-21T12:52:55.662Z,10.43
2019-02-21T12:55:29.313Z,11.67
2019-02-21T12:57:54.332Z,12.20
2019-02-21T13:00:23.200Z,12.97
2019-02-21T13:02:51.646Z,13.33
2019-02-21T13:05:20.383Z,13.20
2019-02-21T13:07:48.851Z,11.70
2019-02-21T13:10:19.209Z,12.97
2019-02-21T13:12:47.670Z,13.23
2019-02-21T13:15:16.366Z,13.23
2019-02-21T13:17:44.896Z,10.10
2019-02-21T13:20:14.688Z,11.13
2019-02-21T13:22:43.214Z,10.70
2019-02-21T13:25:16.578Z,9.60
2019-02-21T13:27:45.047Z,11.70
2019-02-21T13:30:18.228Z,10.77
2019-02-21T13:32:46.814Z,10.07
2019-02-21T13:35:15.353Z,11.07
2019-02-21T13:37:43.810Z,10.17
2019-02-21T13:40:16.919Z,11.17
2019-02-21T13:42:45.447Z,11.70
2019-02-21T13:45:18.256Z,10.37
2019-02-21T13:47:46.865Z,11.13
2019-02-21T13:50:16.970Z,9.93
2019-02-21T13:52:45.484Z,9.47
2019-02-21T13:55:14.002Z,9.40
2019-02-21T13:57:42.538Z,10.63
2019-02-21T14:00:16.496Z,10.30
2019-02-21T14:02:45.890Z,10.20
2019-02-21T14:05:14.422Z,10.50
2019-02-21T14:07:42.882Z,11.43
2019-02-21T14:10:13.289Z,10.00
2019-02-21T14:12:41.824Z,10.67
2019-02-21T14:15:19.147Z,10.73
2019-02-21T14:17:47.663Z,10.87
2019-02-21T14:20:16.108Z,8.20
2019-02-21T14:22:44.576Z,10.00
2019-02-21T14:25:13.241Z,9.67
2019-02-21T14:27:41.766Z,9.57
2019-02-21T14:30:13.150Z,9.43
2019-02-21T14:32:41.687Z,10.73
2019-02-21T14:35:14.538Z,9.50
2019-02-21T14:37:43.061Z,9.63
2019-02-21T14:40:14.126Z,9.50
2019-02-21T14:42:42.733Z,10.10
2019-02-21T14:45:13.837Z,9.60
2019-02-21T14:47:42.350Z,9.20
2019-02-21T14:50:12.550Z,9.00
2019-02-21T14:52:41.138Z,7.53
2019-02-21T14:55:14.850Z,9.40
2019-02-21T14:57:43.367Z,8.50
2019-02-21T15:00:23.814Z,8.17
2019-02-21T15:02:52.326Z,7.33
2019-02-21T15:05:21.112Z,8.60
2019-02-21T15:07:49.569Z,7.90
2019-02-21T15:10:18.080Z,8.20
2019-02-21T15:12:46.635Z,8.47
2019-02-21T15:15:23.349Z,7.87
2019-02-21T15:17:51.813Z,7.80
2019-02-21T15:20:20.254Z,7.67
2019-02-21T15:22:48.704Z,8.70
2019-02-21T15:25:17.229Z,8.80
2019-02-21T15:27:45.921Z,8.90
2019-02-21T15:30:25.499Z,10.93
2019-02-21T15:32:54.018Z,10.60
2019-02-21T15:35:22.485Z,9.37
2019-02-21T15:37:50.995Z,9.43
2019-02-21T15:40:19.463Z,9.80
2019-02-21T15:42:47.926Z,10.10
2019-02-21T15:45:27.521Z,10.60
2019-02-21T15:47:55.988Z,10.83
2019-02-21T15:50:24.510Z,11.43
2019-02-21T15:52:57.343Z,13.07
2019-02-21T15:55:25.807Z,11.37
2019-02-21T15:58:03.487Z,11.83
2019-02-21T16:00:25.038Z,11.67
2019-02-21T16:02:53.491Z,10.93
2019-02-21T16:05:21.956Z,10.37
2019-02-21T16:07:50.419Z,10.17
2019-02-21T16:10:24.471Z,8.00
2019-02-21T16:12:53.228Z,8.10
2019-02-21T16:15:21.931Z,7.83
2019-02-21T16:17:50.400Z,8.63
2019-02-21T16:20:20.357Z,7.67
2019-02-21T16:22:49.147Z,7.30
2019-02-21T16:25:25.678Z,7.20
2019-02-21T16:27:55.502Z,8.20
2019-02-21T16:30:24.512Z,7.00
2019-02-21T16:32:53.025Z,7.70
2019-02-21T16:35:21.570Z,10.50
2019-02-21T16:37:50.022Z,9.53
2019-02-21T16:40:19.782Z,8.80
2019-02-21T16:42:48.231Z,9.33
2019-02-21T16:45:18.632Z,10.50
2019-02-21T16:47:47.202Z,11.23
2019-02-21T16:50:15.799Z,12.80
2019-02-21T16:52:44.317Z,11.93
2019-02-21T16:55:18.111Z,9.47
2019-02-21T16:57:46.637Z,10.70
2019-02-21T17:00:22.615Z,9.50
2019-02-21T17:02:51.102Z,10.03
2019-02-21T17:05:19.618Z,9.67
2019-02-21T17:07:48.204Z,10.03
2019-02-21T17:10:17.005Z,10.77
2019-02-21T17:12:45.628Z,10.50
2019-02-21T17:15:15.865Z,9.40
2019-02-21T17:17:44.321Z,8.83
2019-02-21T17:20:15.014Z,9.27
2019-02-21T17:22:43.598Z,11.27
2019-02-21T17:25:14.637Z,10.80
2019-02-21T17:27:43.794Z,10.40
2019-02-21T17:30:15.459Z,10.30
2019-02-21T17:32:43.919Z,9.10
2019-02-21T17:35:12.523Z,10.07
2019-02-21T17:37:41.109Z,9.77
2019-02-21T17:40:12.642Z,9.60
2019-02-21T17:42:41.088Z,10.47
2019-02-21T17:45:11.542Z,10.10
2019-02-21T17:47:40.135Z,11.37
2019-02-21T17:50:11.194Z,10.80
2019-02-21T17:52:39.727Z,11.80
2019-02-21T17:55:10.091Z,11.00
2019-02-21T17:57:38.547Z,9.27
2019-02-21T18:00:24.014Z,10.00
2019-02-21T18:02:52.619Z,10.40
2019-02-21T18:05:21.131Z,10.63
2019-02-21T18:07:49.571Z,9.10
2019-02-21T18:10:18.521Z,10.60
2019-02-21T18:12:47.024Z,11.00
2019-02-21T18:15:16.522Z,12.03
2019-02-21T18:17:45.057Z,10.50
2019-02-21T18:20:14.847Z,10.97
2019-02-21T18:22:43.439Z,9.47
2019-02-21T18:25:27.103Z,9.50
2019-02-21T18:27:55.617Z,10.47
2019-02-21T18:30:24.198Z,9.20
2019-02-21T18:32:52.646Z,9.10
2019-02-21T18:35:21.159Z,10.37
2019-02-21T18:37:49.693Z,10.70
2019-02-21T18:40:26.141Z,10.00
2019-02-21T18:42:54.662Z,9.77
2019-02-21T18:45:23.238Z,9.47
2019-02-21T18:47:51.683Z,8.43
2019-02-21T18:50:20.274Z,8.17
2019-02-21T18:52:48.716Z,6.73
2019-02-21T18:55:17.255Z,8.73
2019-02-21T18:57:45.695Z,8.63
2019-02-21T19:00:19.976Z,11.20
2019-02-21T19:02:48.592Z,14.97
2019-02-21T19:05:17.101Z,17.30
2019-02-21T19:07:45.635Z,19.90
2019-02-21T19:10:16.727Z,19.53
2019-02-21T19:12:45.327Z,16.83
2019-02-21T19:15:15.710Z,16.10
2019-02-21T19:17:44.245Z,17.77
2019-02-21T19:20:15.403Z,15.30
2019-02-21T19:22:43.858Z,14.30
2019-02-21T19:25:13.561Z,15.63
2019-02-21T19:27:42.142Z,15.00
2019-02-21T19:30:20.233Z,12.50
2019-02-21T19:32:48.835Z,11.10
2019-02-21T19:35:17.519Z,12.10
2019-02-21T19:37:46.047Z,11.60
2019-02-21T19:40:14.930Z,10.77
2019-02-21T19:42:43.455Z,9.80
2019-02-21T19:45:12.047Z,5.73
2019-02-21T19:47:40.621Z,3.97
2019-02-21T19:50:09.915Z,3.17
2019-02-21T19:52:39.648Z,3.73
2019-02-21T19:55:10.226Z,2.83
2019-02-21T19:57:38.810Z,3.90
2019-02-21T20:00:26.719Z,2.60
2019-02-21T20:02:55.653Z,3.27
2019-02-21T20:05:24.210Z,4.53
2019-02-21T20:07:52.726Z,7.70
2019-02-21T20:10:21.529Z,6.97
2019-02-21T20:12:50.035Z,7.47
2019-02-21T20:15:18.765Z,4.60
2019-02-21T20:17:47.383Z,3.23
2019-02-21T20:20:28.397Z,3.60
2019-02-21T20:22:57.087Z,4.17
2019-02-21T20:25:25.638Z,3.77
2019-02-21T20:27:54.089Z,4.70
2019-02-21T20:30:22.978Z,5.30
2019-02-21T20:32:51.499Z,5.33
2019-02-21T20:35:20.148Z,5.27
2019-02-21T20:37:48.679Z,9.27
2019-02-21T20:40:17.259Z,5.40
2019-02-21T20:42:47.415Z,5.23
2019-02-21T20:45:16.009Z,3.97
2019-02-21T20:47:44.514Z,4.33
2019-02-21T20:50:13.419Z,4.40
2019-02-21T20:52:41.930Z,4.50
2019-02-21T20:55:11.418Z,5.20
2019-02-21T20:57:40.084Z,6.00
2019-02-21T21:00:11.732Z,5.17
2019-02-21T21:02:40.250Z,4.87
2019-02-21T21:05:08.770Z,3.70
2019-02-21T21:07:37.237Z,4.80
2019-02-21T21:10:09.362Z,4.53
2019-02-21T21:12:37.887Z,4.67
2019-02-21T21:15:09.557Z,4.13
2019-02-21T21:17:38.331Z,4.53
2019-02-21T21:20:16.384Z,4.10
2019-02-21T21:22:42.466Z,5.00
2019-02-21T21:25:15.630Z,3.50
2019-02-21T21:27:44.145Z,4.63
2019-02-21T21:30:14.436Z,3.83
2019-02-21T21:32:43.009Z,4.40
2019-02-21T21:35:11.606Z,7.07
2019-02-21T21:37:40.055Z,3.90
2019-02-21T21:40:13.654Z,4.47
2019-02-21T21:42:42.090Z,3.93
2019-02-21T21:45:15.682Z,3.90
2019-02-21T21:47:44.185Z,3.60
2019-02-21T21:50:15.382Z,2.70
2019-02-21T21:52:43.979Z,2.50
2019-02-21T21:55:12.410Z,2.60
2019-02-21T21:57:41.008Z,3.77
2019-02-21T22:00:24.798Z,3.17
2019-02-21T22:02:53.322Z,2.50
2019-02-21T22:05:21.834Z,3.07
2019-02-21T22:07:50.429Z,3.20
2019-02-21T22:10:19.026Z,4.13
2019-02-21T22:12:47.833Z,3.47
2019-02-21T22:15:18.618Z,3.60
2019-02-21T22:17:47.121Z,2.93
2019-02-21T22:20:15.570Z,3.57
2019-02-21T22:22:44.005Z,3.70
2019-02-21T22:25:14.098Z,2.53
2019-02-21T22:27:42.611Z,3.67
2019-02-21T22:30:20.714Z,4.00
2019-02-21T22:32:49.164Z,2.73
2019-02-21T22:35:17.618Z,3.00
2019-02-21T22:37:46.142Z,3.53
2019-02-21T22:40:16.522Z,2.60
2019-02-21T22:42:45.049Z,2.53
2019-02-21T22:45:13.930Z,2.80
2019-02-21T22:47:42.370Z,4.87
2019-02-21T22:50:13.625Z,4.30
2019-02-21T22:52:42.154Z,3.23
2019-02-21T22:55:10.619Z,3.03
2019-02-21T22:57:39.470Z,3.30
2019-02-21T23:00:32.172Z,3.70
2019-02-21T23:03:02.326Z,7.20
2019-02-21T23:05:51.934Z,6.50
2019-02-21T23:08:29.067Z,6.27
2019-02-21T23:10:57.526Z,7.00
2019-02-21T23:13:26.073Z,6.83
2019-02-21T23:15:54.651Z,6.40
2019-02-21T23:18:23.172Z,6.47
2019-02-21T23:20:51.678Z,7.63
2019-02-21T23:23:20.134Z,6.20
2019-02-21T23:25:48.569Z,6.40
2019-02-21T23:28:17.021Z,6.37
2019-02-21T23:30:45.455Z,6.10
2019-02-21T23:33:13.905Z,4.70
2019-02-21T23:35:42.354Z,5.80
2019-02-21T23:38:10.806Z,4.60
2019-02-21T23:40:39.246Z,6.27
2019-02-21T23:43:07.707Z,5.10
2019-02-21T23:45:36.215Z,3.53
2019-02-21T23:48:04.810Z,3.70
2019-02-21T23:50:33.310Z,2.77
2019-02-21T23:53:01.766Z,3.00
2019-02-21T23:55:30.198Z,2.90
2019-02-21T23:57:58.648Z,3.10
